Time;durP1;ratioP1;P1;durP2;ratioP2;P2;SDS_P1;SDS_P2;PMS_P1;PMS_P2;Temp;Humidity;BMP_temperature;BMP_pressure;BME280_temperature;BME280_humidity;BME280_pressure;Samples;Min_cycle;Max_cycle;Signal;HPM_P1;HPM_P2
2022/03/09 00:01:34;;;;;;;9.38;4.85;;;6.70;86.40;;;;;;5138053;23;20025;-64
2022/03/09 00:03:36;;;;;;;7.47;4.82;;;6.80;85.60;;;;;;5138956;22;20023;-65
2022/03/09 00:05:36;;;;;;;9.52;5.80;;;6.70;85.10;;;;;;5138286;23;20013;-65
2022/03/09 00:07:37;;;;;;;7.82;5.03;;;6.70;86.90;;;;;;5139105;23;20090;-65
2022/03/09 00:09:38;;;;;;;8.60;5.10;;;6.70;86.50;;;;;;5138659;23;20012;-65
2022/03/09 00:11:39;;;;;;;10.65;5.82;;;6.60;85.70;;;;;;5135912;23;20432;-65
2022/03/09 00:13:39;;;;;;;8.45;5.50;;;6.60;86.90;;;;;;5138876;23;20437;-65
2022/03/09 00:15:40;;;;;;;9.07;5.43;;;6.60;84.90;;;;;;5137513;22;20087;-64
2022/03/09 00:17:41;;;;;;;9.00;5.47;;;6.60;86.50;;;;;;5140483;22;20008;-65
2022/03/09 00:19:41;;;;;;;8.35;5.32;;;6.50;87.80;;;;;;5139943;22;20333;-65
2022/03/09 00:21:42;;;;;;;9.50;5.25;;;6.50;86.90;;;;;;5137779;22;20027;-65
2022/03/09 00:23:43;;;;;;;9.45;5.65;;;6.40;88.50;;;;;;5140207;22;20421;-64
2022/03/09 00:25:44;;;;;;;10.18;5.75;;;6.40;88.80;;;;;;5139370;22;20015;-64
2022/03/09 00:27:44;;;;;;;7.55;5.10;;;6.30;89.20;;;;;;5140235;22;20013;-65
2022/03/09 00:29:45;;;;;;;8.98;5.25;;;6.30;89.20;;;;;;5139920;22;20080;-64
2022/03/09 00:31:46;;;;;;;9.95;5.97;;;6.20;90.70;;;;;;5139209;22;20035;-65
2022/03/09 00:33:46;;;;;;;9.55;5.63;;;6.20;91.30;;;;;;5139804;22;20322;-64
2022/03/09 00:35:47;;;;;;;10.48;6.00;;;6.20;91.60;;;;;;5138883;22;20411;-65
2022/03/09 00:37:47;;;;;;;10.23;6.25;;;6.20;91.50;;;;;;5139690;22;20012;-65
2022/03/09 00:39:48;;;;;;;10.23;6.00;;;6.10;91.20;;;;;;5139750;22;20028;-64
2022/03/09 00:41:49;;;;;;;9.13;5.65;;;6.10;91.80;;;;;;5138403;22;20032;-65
2022/03/09 00:43:50;;;;;;;9.45;5.75;;;6.10;90.80;;;;;;5139572;22;20008;-64
2022/03/09 00:45:50;;;;;;;7.90;5.20;;;6.10;91.00;;;;;;5138364;22;20004;-65
2022/03/09 00:47:51;;;;;;;7.40;5.20;;;6.10;90.60;;;;;;5139541;22;20008;-64
2022/03/09 00:49:52;;;;;;;9.50;5.50;;;6.10;90.10;;;;;;5139708;22;20019;-65
2022/03/09 00:51:52;;;;;;;9.98;5.90;;;6.00;90.60;;;;;;5138592;22;20005;-65
2022/03/09 00:53:53;;;;;;;8.23;4.95;;;6.00;90.40;;;;;;5142311;23;20012;-64
2022/03/09 00:55:53;;;;;;;10.43;5.95;;;6.00;92.50;;;;;;5137853;22;20032;-65
2022/03/09 00:57:54;;;;;;;10.93;6.50;;;6.00;91.70;;;;;;5139353;23;20013;-65
2022/03/09 00:59:54;;;;;;;8.80;5.40;;;5.90;91.60;;;;;;5138249;23;20186;-65
2022/03/09 01:01:55;;;;;;;8.15;5.32;;;5.90;92.40;;;;;;5137247;23;20021;-65
2022/03/09 01:03:55;;;;;;;9.80;5.55;;;5.90;93.30;;;;;;5138664;23;20439;-64
2022/03/09 01:05:56;;;;;;;11.43;5.97;;;5.90;93.30;;;;;;5137727;23;20044;-64
2022/03/09 01:07:57;;;;;;;8.60;5.65;;;5.90;93.20;;;;;;5138802;23;20060;-64
2022/03/09 01:09:57;;;;;;;8.25;5.53;;;5.90;94.20;;;;;;5139051;23;20033;-65
2022/03/09 01:11:58;;;;;;;9.32;5.72;;;5.80;94.50;;;;;;5137963;23;20005;-64
2022/03/09 01:13:59;;;;;;;9.00;5.57;;;5.80;94.80;;;;;;5140474;23;20009;-65
2022/03/09 01:15:59;;;;;;;9.55;5.47;;;5.80;93.80;;;;;;5139743;23;20013;-64
2022/03/09 01:18:00;;;;;;;10.45;5.82;;;5.80;95.10;;;;;;5140627;23;20011;-65
2022/03/09 01:20:01;;;;;;;7.82;5.43;;;5.80;94.00;;;;;;5140439;23;20033;-64
2022/03/09 01:22:01;;;;;;;10.38;6.22;;;5.80;93.90;;;;;;5139559;23;20066;-64
2022/03/09 01:24:02;;;;;;;9.70;5.80;;;5.80;94.70;;;;;;5140237;23;20019;-65
2022/03/09 01:26:03;;;;;;;7.72;5.15;;;5.70;95.10;;;;;;5139357;23;20087;-65
2022/03/09 01:28:03;;;;;;;10.18;5.55;;;5.70;92.10;;;;;;5140037;23;20009;-64
2022/03/09 01:30:05;;;;;;;11.27;5.97;;;5.70;95.00;;;;;;5139736;23;20131;-68
2022/03/09 01:32:06;;;;;;;9.05;5.45;;;5.70;95.00;;;;;;5138934;23;20543;-65
2022/03/09 01:34:07;;;;;;;8.25;5.75;;;5.70;93.00;;;;;;5140332;23;20044;-65
2022/03/09 01:36:07;;;;;;;11.43;5.85;;;5.60;92.50;;;;;;5139405;23;20020;-65
2022/03/09 01:38:08;;;;;;;10.57;6.13;;;5.60;94.10;;;;;;5139860;23;20016;-65
2022/03/09 01:40:09;;;;;;;10.95;5.60;;;5.60;92.90;;;;;;5139801;23;20436;-65
2022/03/09 01:42:10;;;;;;;11.57;5.75;;;5.60;93.60;;;;;;5139675;23;20016;-65
2022/03/09 01:44:19;;;;;;;11.65;6.45;;;5.60;92.30;;;;;;5139980;23;20020;-65
2022/03/09 01:46:20;;;;;;;10.43;5.97;;;5.50;92.10;;;;;;5138318;23;20008;-65
2022/03/09 01:48:21;;;;;;;11.30;5.63;;;5.60;92.20;;;;;;5140878;23;20436;-65
2022/03/09 01:50:21;;;;;;;9.45;5.53;;;5.60;92.30;;;;;;5140100;23;20355;-64
2022/03/09 01:52:23;;;;;;;9.48;5.50;;;5.50;92.00;;;;;;5140469;23;20013;-64
2022/03/09 01:54:24;;;;;;;9.85;5.38;;;5.50;91.40;;;;;;5140884;23;20009;-64
2022/03/09 01:56:26;;;;;;;8.27;5.32;;;5.50;92.20;;;;;;5139595;23;20437;-64
2022/03/09 01:58:27;;;;;;;14.13;6.30;;;5.50;92.40;;;;;;5140272;23;20088;-65
2022/03/09 02:00:27;;;;;;;9.63;5.45;;;5.50;93.30;;;;;;5143700;22;20028;-65
2022/03/09 02:02:28;;;;;;;9.82;5.68;;;5.40;96.20;;;;;;5164927;22;20008;-65
2022/03/09 02:04:29;;;;;;;9.30;5.95;;;5.40;95.20;;;;;;5164798;22;20035;-64
2022/03/09 02:06:31;;;;;;;8.75;5.45;;;5.40;96.00;;;;;;5163742;22;20058;-64
2022/03/09 02:10:56;;;;;;;10.98;6.10;;;5.30;95.50;;;;;;5105136;22;20012;-64
2022/03/09 02:12:57;;;;;;;10.05;5.45;;;5.40;95.70;;;;;;5165149;22;20035;-64
2022/03/09 02:14:57;;;;;;;9.38;5.65;;;5.40;95.30;;;;;;5164644;22;20375;-65
2022/03/09 02:16:59;;;;;;;9.20;5.28;;;5.30;96.10;;;;;;5163903;22;20011;-64
2022/03/09 02:19:01;;;;;;;7.63;5.13;;;5.30;94.10;;;;;;5164694;22;20394;-64
2022/03/09 02:21:03;;;;;;;10.30;5.50;;;5.30;95.00;;;;;;5163787;22;20046;-65
2022/03/09 02:23:03;;;;;;;10.85;5.95;;;5.30;96.60;;;;;;5164179;22;20103;-64
2022/03/09 02:25:16;;;;;;;9.40;5.50;;;5.30;96.80;;;;;;5163159;22;20012;-64
2022/03/09 02:27:23;;;;;;;10.18;5.45;;;5.30;97.20;;;;;;5138611;22;20376;-64
2022/03/09 02:29:24;;;;;;;8.50;5.53;;;5.30;97.10;;;;;;5140283;23;20012;-64
2022/03/09 02:31:24;;;;;;;9.43;5.95;;;5.30;97.20;;;;;;5139309;23;20310;-65
2022/03/09 02:33:25;;;;;;;14.70;6.63;;;5.30;97.00;;;;;;5140048;23;20019;-64
2022/03/09 02:35:25;;;;;;;9.38;5.72;;;5.30;99.30;;;;;;5139001;23;20036;-64
2022/03/09 02:37:26;;;;;;;11.07;5.50;;;5.30;97.10;;;;;;5139628;23;20013;-64
2022/03/09 02:39:26;;;;;;;10.23;5.32;;;5.30;97.00;;;;;;5139646;23;20017;-65
2022/03/09 02:41:28;;;;;;;8.85;4.80;;;5.30;99.20;;;;;;5138998;23;20062;-64
2022/03/09 02:43:29;;;;;;;7.40;5.00;;;5.30;98.70;;;;;;5139795;23;20012;-64
2022/03/09 02:45:29;;;;;;;9.95;5.53;;;5.30;97.90;;;;;;5138616;23;20095;-64
2022/03/09 02:47:30;;;;;;;9.13;5.10;;;5.30;98.00;;;;;;5139474;23;20088;-65
2022/03/09 02:49:31;;;;;;;8.50;5.13;;;5.30;98.80;;;;;;5139236;23;20016;-64
2022/03/09 02:51:32;;;;;;;10.70;5.35;;;5.30;96.00;;;;;;5138358;23;20009;-64
2022/03/09 02:53:32;;;;;;;10.65;5.78;;;5.30;97.50;;;;;;5138438;23;20083;-64
2022/03/09 02:55:33;;;;;;;11.18;5.95;;;5.30;96.70;;;;;;5138262;23;20024;-64
2022/03/09 02:57:34;;;;;;;9.15;5.50;;;5.30;96.10;;;;;;5138641;23;20020;-64
2022/03/09 02:59:35;;;;;;;8.85;5.40;;;5.30;98.00;;;;;;5138637;23;20027;-64
2022/03/09 03:01:36;;;;;;;9.10;5.43;;;5.30;99.90;;;;;;5137092;23;20029;-65
2022/03/09 03:03:37;;;;;;;8.82;5.82;;;5.30;97.00;;;;;;5138195;23;20490;-66
2022/03/09 03:05:37;;;;;;;10.80;5.13;;;5.30;99.20;;;;;;5138722;23;20058;-65
2022/03/09 03:07:38;;;;;;;8.20;5.05;;;5.30;98.10;;;;;;5138935;23;20012;-65
2022/03/09 03:09:38;;;;;;;10.02;5.47;;;5.30;99.10;;;;;;5139285;23;20043;-65
2022/03/09 03:11:39;;;;;;;9.70;6.05;;;5.20;99.10;;;;;;5138545;23;20020;-65
2022/03/09 03:13:41;;;;;;;9.80;5.32;;;5.30;99.00;;;;;;5139965;23;20115;-64
2022/03/09 03:15:41;;;;;;;12.95;5.75;;;5.30;97.80;;;;;;5138638;23;20007;-65
2022/03/09 03:17:42;;;;;;;8.65;5.32;;;5.30;97.40;;;;;;5139158;23;20008;-65
2022/03/09 03:19:42;;;;;;;9.70;5.50;;;5.30;97.30;;;;;;5139081;23;20017;-65
2022/03/09 03:21:43;;;;;;;10.13;5.65;;;5.30;98.20;;;;;;5138431;23;20009;-64
2022/03/09 03:23:43;;;;;;;10.15;5.88;;;5.30;97.90;;;;;;5139424;23;20012;-64
2022/03/09 03:25:44;;;;;;;9.80;5.70;;;5.30;97.60;;;;;;5138317;23;20451;-65
2022/03/09 03:27:45;;;;;;;9.73;5.03;;;5.30;98.80;;;;;;5140470;23;20008;-65
2022/03/09 03:29:45;;;;;;;10.35;5.88;;;5.20;96.40;;;;;;5139274;23;20008;-65
2022/03/09 03:31:46;;;;;;;10.60;5.30;;;5.10;97.60;;;;;;5139832;23;20039;-65
2022/03/09 03:33:47;;;;;;;9.77;5.60;;;5.10;95.20;;;;;;5140737;23;20013;-65
2022/03/09 03:35:49;;;;;;;8.98;5.13;;;5.10;94.30;;;;;;5138219;23;20338;-64
2022/03/09 03:37:49;;;;;;;12.30;5.53;;;5.00;94.50;;;;;;5140417;23;20011;-64
2022/03/09 03:39:50;;;;;;;10.07;5.32;;;5.10;95.80;;;;;;5139845;23;20329;-65
2022/03/09 03:41:50;;;;;;;11.20;5.78;;;5.10;98.10;;;;;;5139073;23;20035;-64
2022/03/09 03:43:51;;;;;;;11.02;5.30;;;5.00;97.70;;;;;;5140219;23;20023;-65
2022/03/09 03:45:51;;;;;;;8.50;5.30;;;5.00;96.10;;;;;;5137613;23;20088;-64
2022/03/09 03:47:52;;;;;;;8.73;5.15;;;5.00;98.10;;;;;;5140182;23;20016;-65
2022/03/09 03:49:53;;;;;;;9.10;5.65;;;5.00;96.20;;;;;;5138919;23;20013;-64
2022/03/09 03:51:54;;;;;;;8.52;5.43;;;5.00;97.00;;;;;;5139344;23;20088;-65
2022/03/09 03:53:54;;;;;;;9.43;5.57;;;5.00;97.10;;;;;;5139614;23;20402;-64
2022/03/09 03:55:55;;;;;;;9.63;4.72;;;5.00;96.50;;;;;;5139241;23;20008;-64
2022/03/09 03:57:55;;;;;;;10.15;5.50;;;5.00;94.70;;;;;;5139952;23;20028;-64
2022/03/09 03:59:56;;;;;;;9.88;5.00;;;5.00;95.20;;;;;;5139506;23;20099;-64
2022/03/09 04:01:56;;;;;;;11.00;5.35;;;4.90;94.20;;;;;;5163874;22;20017;-64
2022/03/09 04:03:57;;;;;;;7.97;4.72;;;5.00;97.50;;;;;;5164516;22;20012;-65
2022/03/09 04:05:58;;;;;;;8.88;4.72;;;5.00;97.10;;;;;;5163760;22;20090;-64
2022/03/09 04:07:58;;;;;;;9.02;5.20;;;5.00;96.40;;;;;;5164380;22;20079;-65
2022/03/09 04:09:59;;;;;;;11.18;5.32;;;5.00;97.70;;;;;;5164565;22;20015;-64
2022/03/09 04:11:59;;;;;;;8.85;5.15;;;5.00;97.10;;;;;;5163715;22;20035;-64
2022/03/09 04:14:00;;;;;;;9.65;4.80;;;5.10;97.10;;;;;;5164006;22;20001;-65
2022/03/09 04:16:01;;;;;;;10.27;5.10;;;5.10;97.80;;;;;;5163486;22;20008;-64
2022/03/09 04:18:02;;;;;;;8.32;4.85;;;5.00;95.70;;;;;;5164124;22;20451;-65
2022/03/09 04:20:03;;;;;;;9.70;4.97;;;5.00;94.60;;;;;;5164405;22;20008;-65
2022/03/09 04:22:05;;;;;;;8.80;5.17;;;5.00;95.80;;;;;;5163079;22;20012;-65
2022/03/09 04:24:06;;;;;;;8.85;5.13;;;5.00;95.80;;;;;;5164214;22;20091;-64
2022/03/09 04:26:06;;;;;;;10.15;5.68;;;5.10;96.10;;;;;;5162630;22;20000;-65
2022/03/09 04:28:07;;;;;;;9.02;4.53;;;5.10;97.30;;;;;;5163938;22;20424;-65
2022/03/09 04:30:09;;;;;;;8.77;4.50;;;5.10;98.90;;;;;;5137886;22;20016;-65
2022/03/09 04:32:09;;;;;;;9.10;4.60;;;5.10;99.50;;;;;;5138860;22;20013;-65
2022/03/09 04:34:10;;;;;;;8.52;4.80;;;5.10;96.20;;;;;;5138876;22;20223;-64
2022/03/09 04:36:11;;;;;;;8.55;4.57;;;5.10;99.90;;;;;;5138116;22;20005;-64
2022/03/09 04:38:11;;;;;;;10.70;5.22;;;5.10;96.30;;;;;;5138940;22;20016;-65
2022/03/09 04:40:13;;;;;;;8.93;4.63;;;5.00;97.60;;;;;;5140640;23;20321;-65
2022/03/09 04:42:14;;;;;;;8.43;4.88;;;5.00;96.70;;;;;;5138634;22;20005;-65
2022/03/09 04:44:14;;;;;;;10.32;5.15;;;5.00;97.40;;;;;;5138936;23;20145;-65
2022/03/09 04:46:16;;;;;;;9.52;4.82;;;5.00;96.60;;;;;;5137455;23;20023;-66
2022/03/09 04:48:17;;;;;;;9.33;5.70;;;5.00;97.30;;;;;;5139855;23;20016;-65
2022/03/09 04:50:17;;;;;;;10.25;6.03;;;5.00;98.10;;;;;;5138763;23;20226;-65
2022/03/09 04:52:18;;;;;;;10.65;5.43;;;5.00;98.80;;;;;;5137942;23;20012;-65
2022/03/09 04:54:19;;;;;;;10.25;5.18;;;5.00;99.20;;;;;;5139834;23;20009;-64
2022/03/09 04:56:20;;;;;;;9.95;5.15;;;5.00;98.00;;;;;;5139133;23;20016;-65
2022/03/09 04:58:21;;;;;;;9.52;4.97;;;5.00;99.90;;;;;;5139331;23;20324;-65
2022/03/09 05:00:21;;;;;;;10.52;5.45;;;5.00;98.60;;;;;;5138437;23;20115;-65
2022/03/09 05:02:22;;;;;;;10.70;5.93;;;5.00;96.90;;;;;;5138612;23;20004;-65
2022/03/09 05:04:23;;;;;;;11.75;6.32;;;5.00;97.70;;;;;;5139326;23;20432;-64
2022/03/09 05:06:23;;;;;;;13.25;6.63;;;5.00;97.70;;;;;;5138711;23;20406;-64
2022/03/09 05:08:24;;;;;;;10.38;6.72;;;4.90;95.30;;;;;;5139516;23;20084;-65
2022/03/09 05:10:24;;;;;;;10.15;5.63;;;4.90;96.30;;;;;;5138407;23;20506;-66
2022/03/09 05:12:25;;;;;;;10.75;5.88;;;4.90;96.50;;;;;;5139378;23;20015;-66
2022/03/09 05:14:26;;;;;;;12.80;6.55;;;4.90;97.40;;;;;;5138943;23;20027;-65
2022/03/09 05:16:26;;;;;;;10.70;6.57;;;4.90;96.90;;;;;;5138409;23;20013;-65
2022/03/09 05:18:27;;;;;;;9.60;5.70;;;4.90;96.90;;;;;;5139029;23;20016;-64
2022/03/09 05:20:28;;;;;;;11.68;6.75;;;4.90;98.50;;;;;;5138110;23;20017;-65
2022/03/09 05:22:28;;;;;;;10.50;6.38;;;4.90;99.00;;;;;;5139181;23;20025;-64
2022/03/09 05:24:29;;;;;;;12.00;6.75;;;4.90;97.60;;;;;;5140025;23;20039;-64
2022/03/09 05:26:30;;;;;;;11.95;6.43;;;4.90;97.60;;;;;;5138840;23;20009;-64
2022/03/09 05:28:30;;;;;;;11.63;6.25;;;4.90;96.20;;;;;;5139598;23;20013;-64
2022/03/09 05:30:31;;;;;;;10.18;6.10;;;4.90;96.50;;;;;;5138640;23;20376;-64
2022/03/09 05:32:32;;;;;;;12.32;6.38;;;4.90;94.90;;;;;;5138276;23;20009;-65
2022/03/09 05:34:33;;;;;;;9.38;5.93;;;4.90;96.80;;;;;;5138667;23;20453;-64
2022/03/09 05:36:33;;;;;;;8.55;5.65;;;4.90;98.50;;;;;;5137917;23;20011;-65
2022/03/09 05:38:34;;;;;;;10.35;5.60;;;4.90;97.80;;;;;;5138610;23;20020;-65
2022/03/09 05:40:35;;;;;;;11.02;6.20;;;4.90;97.30;;;;;;5138402;23;20005;-65
2022/03/09 05:42:36;;;;;;;9.70;5.35;;;4.80;96.80;;;;;;5138893;23;20017;-65
2022/03/09 05:44:36;;;;;;;10.90;5.53;;;4.80;97.60;;;;;;5138413;23;20013;-65
2022/03/09 05:46:37;;;;;;;10.93;5.97;;;4.80;98.60;;;;;;5137885;23;20019;-65
2022/03/09 05:48:38;;;;;;;14.75;6.30;;;4.80;95.40;;;;;;5138759;23;20080;-65
2022/03/09 05:50:38;;;;;;;11.02;5.65;;;4.80;96.60;;;;;;5137738;23;20020;-65
2022/03/09 05:52:39;;;;;;;9.63;5.45;;;4.80;96.70;;;;;;5162698;22;20032;-66
2022/03/09 05:54:39;;;;;;;12.10;5.75;;;4.70;97.30;;;;;;5163847;22;20004;-65
2022/03/09 05:56:41;;;;;;;8.75;5.28;;;4.70;99.50;;;;;;5162546;22;20075;-65
2022/03/09 05:58:41;;;;;;;10.18;5.40;;;4.70;99.50;;;;;;5163976;22;20012;-65
2022/03/09 06:00:42;;;;;;;11.55;5.78;;;4.70;96.70;;;;;;5164484;22;20031;-65
2022/03/09 06:02:43;;;;;;;11.35;6.05;;;4.70;99.20;;;;;;5165379;22;20015;-64
2022/03/09 06:04:45;;;;;;;9.38;5.53;;;4.70;95.50;;;;;;5164987;22;20004;-64
2022/03/09 06:06:45;;;;;;;10.10;5.32;;;4.70;98.30;;;;;;5161776;22;20008;-65
2022/03/09 06:08:46;;;;;;;7.97;4.97;;;4.60;94.80;;;;;;5164727;22;20081;-64
2022/03/09 06:10:46;;;;;;;11.40;5.63;;;4.70;96.50;;;;;;5165518;22;20012;-65
2022/03/09 06:12:47;;;;;;;8.95;5.20;;;4.60;95.70;;;;;;5166351;22;20094;-65
2022/03/09 06:14:47;;;;;;;9.32;5.40;;;4.60;95.60;;;;;;5166532;22;20016;-64
2022/03/09 06:16:48;;;;;;;8.95;5.40;;;4.60;95.20;;;;;;5165527;22;20087;-65
2022/03/09 06:18:49;;;;;;;9.63;5.45;;;4.70;98.00;;;;;;5166956;22;20554;-64
2022/03/09 06:20:50;;;;;;;9.60;5.47;;;4.60;95.70;;;;;;5164505;22;20310;-64
2022/03/09 06:22:51;;;;;;;9.98;5.03;;;4.60;95.80;;;;;;5165484;22;20004;-64
2022/03/09 06:24:51;;;;;;;11.52;5.82;;;4.60;95.00;;;;;;5165571;22;20498;-64
2022/03/09 06:26:53;;;;;;;11.77;6.13;;;4.70;97.00;;;;;;5164090;22;20035;-64
2022/03/09 06:28:54;;;;;;;8.73;4.88;;;4.60;95.00;;;;;;5161444;23;20454;-65
2022/03/09 06:30:54;;;;;;;8.68;5.03;;;4.70;97.60;;;;;;5163424;22;20004;-64
2022/03/09 06:32:55;;;;;;;9.07;5.45;;;4.70;95.80;;;;;;5163532;22;20104;-64
2022/03/09 06:34:56;;;;;;;12.15;5.65;;;4.70;94.90;;;;;;5163522;22;20415;-64
2022/03/09 06:36:56;;;;;;;15.52;5.60;;;4.60;93.70;;;;;;5162273;22;20008;-64
2022/03/09 06:38:57;;;;;;;8.68;4.72;;;4.70;97.20;;;;;;5163665;22;20020;-64
2022/03/09 06:40:58;;;;;;;10.68;5.45;;;4.70;94.20;;;;;;5162100;22;20062;-64
2022/03/09 06:42:59;;;;;;;9.63;5.32;;;4.70;97.10;;;;;;5161041;22;20012;-64
2022/03/09 06:45:00;;;;;;;8.05;4.88;;;4.70;94.50;;;;;;5159473;22;20012;-64
2022/03/09 06:47:04;;;;;;;14.40;8.13;;;4.70;93.90;;;;;;5160244;22;20008;-63
2022/03/09 06:49:05;;;;;;;12.63;6.85;;;4.70;94.30;;;;;;5163070;22;20008;-64
2022/03/09 06:51:05;;;;;;;13.18;5.80;;;4.70;95.40;;;;;;5161514;22;20009;-64
2022/03/09 06:53:06;;;;;;;12.90;6.05;;;4.70;94.40;;;;;;5162398;22;20004;-64
2022/03/09 06:55:08;;;;;;;10.73;5.65;;;4.80;96.00;;;;;;5162527;22;20012;-66
2022/03/09 06:57:09;;;;;;;9.55;5.68;;;4.80;95.90;;;;;;5162144;22;20353;-64
2022/03/09 06:59:10;;;;;;;9.52;6.03;;;4.80;95.00;;;;;;5136911;22;20023;-65
2022/03/09 07:01:11;;;;;;;10.98;6.18;;;4.80;91.00;;;;;;5136887;22;20028;-64
2022/03/09 07:03:11;;;;;;;10.60;5.72;;;4.90;93.90;;;;;;5138016;22;20039;-63
2022/03/09 07:05:13;;;;;;;8.18;5.15;;;5.10;96.30;;;;;;5153602;23;20436;-64
2022/03/09 07:07:13;;;;;;;11.15;5.45;;;5.30;95.90;;;;;;5136850;22;20012;-64
2022/03/09 07:09:17;;;;;;;10.75;5.57;;;5.50;95.20;;;;;;5138089;23;20023;-65
2022/03/09 07:11:17;;;;;;;12.20;5.00;;;5.80;95.00;;;;;;5136367;23;20396;-64
2022/03/09 07:13:18;;;;;;;16.60;6.13;;;6.10;93.90;;;;;;5137761;22;20021;-64
2022/03/09 07:15:19;;;;;;;9.23;5.50;;;6.40;94.10;;;;;;5140695;22;20392;-64
2022/03/09 07:17:19;;;;;;;13.50;6.25;;;6.70;90.70;;;;;;5138772;22;20413;-65
2022/03/09 07:19:20;;;;;;;9.50;5.80;;;6.90;85.80;;;;;;5160811;22;20023;-65
2022/03/09 07:21:20;;;;;;;10.82;6.00;;;7.20;85.50;;;;;;5137759;22;20075;-64
2022/03/09 07:23:21;;;;;;;9.43;5.70;;;7.40;83.90;;;;;;5138342;22;20015;-64
2022/03/09 07:25:21;;;;;;;11.15;6.38;;;7.60;78.60;;;;;;5137969;22;20005;-64
2022/03/09 07:27:22;;;;;;;9.20;5.43;;;7.60;76.80;;;;;;5138530;22;20013;-64
2022/03/09 07:29:23;;;;;;;9.82;5.78;;;7.90;78.90;;;;;;5138769;22;20355;-65
2022/03/09 07:31:24;;;;;;;9.88;5.90;;;8.20;76.30;;;;;;5137399;22;20009;-65
2022/03/09 07:33:24;;;;;;;10.65;5.95;;;8.40;81.10;;;;;;5137964;22;20011;-65
2022/03/09 07:35:26;;;;;;;9.73;5.82;;;8.70;80.10;;;;;;5137472;22;20009;-65
2022/03/09 07:37:27;;;;;;;10.63;5.40;;;8.90;72.90;;;;;;5138331;22;20032;-64
2022/03/09 07:39:29;;;;;;;8.57;5.63;;;9.10;72.50;;;;;;5137099;22;20314;-64
2022/03/09 07:41:29;;;;;;;8.90;6.03;;;9.40;70.60;;;;;;5133605;22;20463;-64
2022/03/09 07:43:30;;;;;;;8.07;5.30;;;9.60;70.20;;;;;;5137614;22;20004;-65
2022/03/09 07:45:31;;;;;;;10.82;5.55;;;9.60;67.70;;;;;;5134947;22;20460;-65
2022/03/09 07:47:33;;;;;;;12.27;5.97;;;9.60;67.00;;;;;;5136088;22;20071;-65
2022/03/09 07:49:33;;;;;;;8.20;5.32;;;9.80;69.60;;;;;;5132783;22;20009;-65
2022/03/09 07:51:34;;;;;;;8.20;5.30;;;10.20;73.60;;;;;;5137165;23;20451;-64
2022/03/09 07:53:35;;;;;;;6.93;4.97;;;10.50;69.50;;;;;;5137348;23;20020;-65
2022/03/09 07:55:36;;;;;;;10.60;6.40;;;10.70;68.00;;;;;;5136623;23;20008;-65
2022/03/09 07:57:37;;;;;;;7.68;5.13;;;10.70;63.80;;;;;;5137259;23;20461;-65
2022/03/09 07:59:38;;;;;;;9.50;5.72;;;11.00;63.80;;;;;;5137468;23;20044;-65
2022/03/09 08:01:40;;;;;;;16.02;5.82;;;11.30;60.80;;;;;;5136505;23;20032;-65
2022/03/09 08:03:40;;;;;;;9.30;6.03;;;11.40;59.60;;;;;;5137430;23;20341;-65
2022/03/09 08:05:43;;;;;;;9.05;5.47;;;11.30;59.10;;;;;;5136024;23;20023;-66
2022/03/09 08:07:45;;;;;;;10.57;5.82;;;11.30;59.20;;;;;;5137421;23;20016;-65
2022/03/09 08:09:46;;;;;;;6.97;5.55;;;11.50;58.40;;;;;;5137002;23;20392;-65
2022/03/09 08:11:47;;;;;;;10.10;5.70;;;11.50;58.10;;;;;;5136362;23;20013;-65
2022/03/09 08:13:47;;;;;;;13.35;6.22;;;11.80;60.40;;;;;;5137219;23;20076;-65
2022/03/09 08:15:48;;;;;;;7.72;5.63;;;11.90;58.80;;;;;;5135731;23;20108;-65
2022/03/09 08:17:49;;;;;;;9.70;6.10;;;12.20;56.40;;;;;;5137183;23;20019;-65
2022/03/09 08:19:50;;;;;;;8.10;5.43;;;12.10;54.40;;;;;;5136668;23;20024;-65
2022/03/09 08:21:50;;;;;;;10.05;5.80;;;12.10;55.20;;;;;;5135715;23;20004;-66
2022/03/09 08:23:51;;;;;;;9.63;5.95;;;11.90;54.60;;;;;;5135792;23;20074;-66
2022/03/09 08:25:52;;;;;;;10.43;5.40;;;12.10;54.60;;;;;;5137873;23;20314;-65
2022/03/09 08:27:53;;;;;;;12.65;6.40;;;12.40;56.30;;;;;;5138346;23;20024;-65
2022/03/09 08:29:53;;;;;;;9.48;5.88;;;12.60;54.40;;;;;;5138292;23;20039;-66
2022/03/09 08:31:55;;;;;;;8.55;5.45;;;12.60;56.80;;;;;;5137263;23;20384;-66
2022/03/09 08:33:55;;;;;;;8.18;5.57;;;12.70;56.90;;;;;;5137963;23;20088;-65
2022/03/09 08:35:56;;;;;;;10.90;6.10;;;12.60;53.90;;;;;;5137440;23;20444;-66
2022/03/09 08:37:56;;;;;;;10.63;5.68;;;12.50;53.10;;;;;;5137783;23;20012;-65
2022/03/09 08:39:57;;;;;;;11.00;5.93;;;12.20;52.40;;;;;;5137387;23;20467;-66
2022/03/09 08:41:58;;;;;;;12.30;6.47;;;12.30;54.60;;;;;;5137308;23;20322;-66
2022/03/09 08:43:58;;;;;;;7.60;5.80;;;12.10;53.00;;;;;;5137560;23;20084;-65
2022/03/09 08:46:00;;;;;;;11.80;6.45;;;12.10;55.20;;;;;;5133983;23;20071;-65
2022/03/09 08:48:01;;;;;;;8.68;5.75;;;11.90;53.00;;;;;;5137580;23;20478;-65
2022/03/09 08:50:02;;;;;;;10.32;5.93;;;11.80;54.50;;;;;;5137416;23;20008;-66
2022/03/09 08:52:03;;;;;;;10.18;6.25;;;11.80;55.10;;;;;;5136250;23;20946;-65
2022/03/09 08:54:04;;;;;;;11.38;6.15;;;11.80;54.50;;;;;;5136257;23;20012;-65
2022/03/09 08:56:07;;;;;;;8.45;5.75;;;11.70;54.50;;;;;;5136665;23;20535;-65
2022/03/09 08:58:08;;;;;;;9.48;6.15;;;11.70;55.50;;;;;;5134249;23;20429;-65
2022/03/09 09:00:09;;;;;;;9.68;6.50;;;11.60;55.40;;;;;;5134567;23;20024;-66
2022/03/09 09:02:10;;;;;;;11.45;6.20;;;11.70;55.90;;;;;;5157456;22;20012;-65
2022/03/09 09:04:11;;;;;;;9.45;6.50;;;11.40;54.70;;;;;;5161750;22;20019;-65
2022/03/09 09:06:12;;;;;;;8.88;6.20;;;11.40;55.30;;;;;;5161338;22;20081;-65
2022/03/09 09:08:13;;;;;;;11.18;6.68;;;11.50;56.80;;;;;;5161406;22;20008;-65
2022/03/09 09:10:14;;;;;;;11.85;6.63;;;11.50;57.10;;;;;;5135446;23;20012;-65
2022/03/09 09:12:15;;;;;;;12.65;6.90;;;11.50;55.00;;;;;;5136926;23;20095;-66
2022/03/09 09:14:15;;;;;;;8.77;6.00;;;11.40;54.70;;;;;;5136920;23;20013;-65
2022/03/09 09:16:16;;;;;;;9.40;6.25;;;11.50;54.90;;;;;;5136357;23;20013;-65
2022/03/09 09:18:17;;;;;;;9.65;6.72;;;11.20;54.40;;;;;;5137089;23;20339;-65
2022/03/09 09:20:17;;;;;;;10.15;6.22;;;11.40;55.70;;;;;;5136208;23;20016;-65
2022/03/09 09:22:18;;;;;;;10.35;6.20;;;11.40;55.40;;;;;;5136995;23;20083;-65
2022/03/09 09:24:19;;;;;;;10.07;6.32;;;11.50;55.80;;;;;;5136788;23;20139;-65
2022/03/09 09:26:20;;;;;;;12.65;6.85;;;11.50;55.90;;;;;;5135680;23;20008;-65
2022/03/09 09:28:20;;;;;;;10.10;6.43;;;11.40;55.80;;;;;;5137005;23;20031;-65
2022/03/09 09:30:23;;;;;;;9.98;6.55;;;11.50;56.90;;;;;;5135750;23;20039;-65
2022/03/09 09:32:23;;;;;;;12.00;7.30;;;11.60;55.60;;;;;;5137144;23;20013;-65
2022/03/09 09:34:24;;;;;;;11.88;6.85;;;11.60;55.60;;;;;;5139093;23;20432;-65
2022/03/09 09:36:25;;;;;;;10.02;6.15;;;11.70;55.30;;;;;;5138692;23;20035;-65
2022/03/09 09:38:27;;;;;;;10.95;6.88;;;11.70;56.00;;;;;;5138363;23;20043;-65
2022/03/09 09:40:31;;;;;;;9.70;6.55;;;11.80;56.90;;;;;;5138838;23;20341;-65
2022/03/09 09:42:31;;;;;;;9.82;6.60;;;11.80;55.30;;;;;;5139290;23;20017;-65
2022/03/09 09:44:34;;;;;;;7.70;6.05;;;11.90;56.50;;;;;;5139455;23;20008;-65
2022/03/09 09:46:38;;;;;;;11.15;7.28;;;12.00;55.80;;;;;;5138154;23;20009;-65
2022/03/09 09:48:39;;;;;;;13.27;7.25;;;11.90;53.50;;;;;;5138974;23;20008;-65
2022/03/09 09:50:42;;;;;;;11.65;7.32;;;11.80;53.00;;;;;;5138103;23;20299;-65
2022/03/09 09:52:43;;;;;;;11.00;6.88;;;11.60;54.20;;;;;;5138553;23;20074;-65
2022/03/09 09:54:44;;;;;;;11.82;7.22;;;11.70;54.20;;;;;;5137694;23;20039;-65
2022/03/09 09:56:45;;;;;;;14.50;7.47;;;11.80;56.00;;;;;;5137718;23;20012;-65
2022/03/09 09:58:46;;;;;;;12.82;7.90;;;11.80;55.10;;;;;;5138737;23;20020;-65
2022/03/09 10:00:46;;;;;;;13.50;7.50;;;11.90;55.10;;;;;;5130476;23;20083;-65
2022/03/09 10:02:47;;;;;;;11.18;7.10;;;11.90;54.50;;;;;;5114395;23;20044;-66
2022/03/09 10:04:50;;;;;;;11.75;7.53;;;11.90;54.70;;;;;;5113805;23;20556;-65
2022/03/09 10:06:50;;;;;;;13.73;7.53;;;12.00;54.70;;;;;;5111109;23;20024;-64
2022/03/09 10:09:11;;;;;;;15.20;7.63;;;12.00;55.70;;;;;;5118330;23;20009;-64
2022/03/09 10:11:12;;;;;;;13.32;7.68;;;12.10;55.50;;;;;;5113495;23;20048;-65
2022/03/09 10:13:21;;;;;;;15.35;7.68;;;12.20;55.80;;;;;;5113909;23;20009;-65
2022/03/09 10:15:21;;;;;;;12.38;6.70;;;12.10;54.80;;;;;;5121441;23;20622;-64
2022/03/09 10:17:24;;;;;;;10.95;6.60;;;12.20;55.70;;;;;;5115261;23;20012;-64
2022/03/09 10:19:30;;;;;;;9.68;6.90;;;12.30;56.50;;;;;;5113252;23;20071;-65
2022/03/09 10:21:35;;;;;;;14.90;6.75;;;12.40;56.70;;;;;;5112769;23;20579;-65
2022/03/09 10:23:51;;;;;;;14.27;8.02;;;12.40;56.00;;;;;;5114423;23;20009;-65
2022/03/09 10:26:00;;;;;;;10.55;6.80;;;12.50;55.40;;;;;;5112599;23;20013;-65
2022/03/09 10:28:07;;;;;;;13.63;7.68;;;12.50;55.90;;;;;;5114330;23;20013;-65
2022/03/09 10:30:11;;;;;;;12.02;6.35;;;12.50;55.20;;;;;;5113980;23;20545;-66
2022/03/09 10:32:11;;;;;;;12.20;7.43;;;12.60;54.20;;;;;;5113623;23;20013;-64
2022/03/09 10:34:22;;;;;;;15.60;8.05;;;12.60;55.20;;;;;;5113779;23;20028;-64
2022/03/09 10:36:23;;;;;;;13.27;7.78;;;12.60;54.00;;;;;;5112125;23;20075;-65